createdAt,value
2023-03-27T00:00:06.494Z,95.78
2023-03-27T00:00:37.455Z,95.64
2023-03-27T00:01:08.204Z,95.77
2023-03-27T00:01:38.717Z,95.53
2023-03-27T00:02:09.722Z,96.21
2023-03-27T00:02:40.502Z,95.92
2023-03-27T00:03:11.198Z,95.53
2023-03-27T00:03:41.988Z,95.51
2023-03-27T00:04:12.837Z,95.75
2023-03-27T00:04:44.446Z,95.81
2023-03-27T00:05:14.064Z,95.92
2023-03-27T00:05:44.768Z,95.46
2023-03-27T00:06:15.645Z,95.56
2023-03-27T00:06:46.158Z,95.67
2023-03-27T00:07:17.300Z,95.47
2023-03-27T00:07:48.032Z,95.72
2023-03-27T00:08:18.741Z,95.51
2023-03-27T00:08:49.285Z,95.77
2023-03-27T00:09:20.029Z,95.37
2023-03-27T00:09:50.773Z,95.57
2023-03-27T00:10:21.463Z,95.51
2023-03-27T00:10:51.990Z,95.51
2023-03-27T00:11:22.588Z,95.57
2023-03-27T00:11:53.266Z,95.77
2023-03-27T00:12:23.984Z,95.77
2023-03-27T00:12:54.488Z,95.22
2023-03-27T00:13:25.589Z,95.06
2023-03-27T00:13:56.289Z,95.31
2023-03-27T00:14:26.956Z,95.19
2023-03-27T00:14:57.656Z,95.51
2023-03-27T00:15:28.535Z,94.93
2023-03-27T00:15:59.294Z,94.93
2023-03-27T00:16:29.896Z,95.31
2023-03-27T00:17:00.548Z,95.31
2023-03-27T00:17:31.260Z,95.37
2023-03-27T00:18:01.818Z,95.54
2023-03-27T00:18:32.523Z,95.57
2023-03-27T00:19:03.196Z,95.72
2023-03-27T00:20:14.766Z,95.89
2023-03-27T00:20:45.217Z,95.93
2023-03-27T00:21:16.331Z,96.03
2023-03-27T00:21:46.846Z,96.15
2023-03-27T00:22:17.370Z,95.95
2023-03-27T00:22:48.208Z,96.09
2023-03-27T00:23:18.694Z,96.21
2023-03-27T00:23:49.716Z,96.20
2023-03-27T00:24:20.816Z,96.11
2023-03-27T00:24:51.620Z,95.86
2023-03-27T00:25:22.277Z,96.06
2023-03-27T00:25:53.133Z,96.36
2023-03-27T00:27:04.970Z,96.39
2023-03-27T00:27:35.468Z,96.48
2023-03-27T00:28:06.145Z,96.55
2023-03-27T00:28:36.832Z,96.91
2023-03-27T00:29:07.317Z,97.22
2023-03-27T00:29:38.589Z,97.44
2023-03-27T00:30:09.279Z,97.20
2023-03-27T00:30:39.803Z,97.39
2023-03-27T00:31:10.685Z,97.78
2023-03-27T00:31:40.904Z,97.77
2023-03-27T00:32:11.985Z,97.96
2023-03-27T00:32:42.938Z,98.27
2023-03-27T00:33:13.670Z,98.32
2023-03-27T00:33:44.365Z,98.21
2023-03-27T00:34:14.858Z,98.61
2023-03-27T00:34:45.536Z,98.48
2023-03-27T00:35:16.236Z,98.69
2023-03-27T00:35:47.242Z,98.43
2023-03-27T00:36:17.293Z,98.27
2023-03-27T00:36:48.409Z,98.33
2023-03-27T00:37:19.100Z,98.42
2023-03-27T00:37:49.794Z,98.54
2023-03-27T00:38:20.325Z,98.58
2023-03-27T00:38:51.298Z,98.99
2023-03-27T00:39:21.924Z,99.05
2023-03-27T00:39:52.415Z,99.00
2023-03-27T00:40:23.691Z,99.26
2023-03-27T00:40:55.056Z,99.10
2023-03-27T00:41:24.956Z,99.00
2023-03-27T00:41:55.823Z,98.90
2023-03-27T00:42:26.379Z,98.74
2023-03-27T00:42:57.062Z,98.83
2023-03-27T00:43:27.757Z,99.30
2023-03-27T00:43:58.479Z,99.19
2023-03-27T00:44:28.937Z,99.40
2023-03-27T00:45:00.166Z,99.32
2023-03-27T00:45:30.658Z,99.26
2023-03-27T00:46:01.428Z,99.30
2023-03-27T00:46:32.196Z,99.07
2023-03-27T00:47:02.870Z,99.35
2023-03-27T00:47:33.598Z,99.56
2023-03-27T00:48:04.487Z,99.25
2023-03-27T00:48:35.009Z,99.19
2023-03-27T00:49:05.752Z,99.19
2023-03-27T00:49:36.389Z,99.52
2023-03-27T00:50:07.097Z,99.82
2023-03-27T00:50:37.844Z,99.87
2023-03-27T00:51:08.746Z,99.99
2023-03-27T00:51:39.347Z,99.73
2023-03-27T00:52:10.037Z,99.94
2023-03-27T00:52:40.856Z,99.99
2023-03-27T00:53:11.382Z,99.99
2023-03-27T00:53:41.841Z,99.99
2023-03-27T00:54:13.220Z,99.99
2023-03-27T00:54:43.914Z,99.98
2023-03-27T00:55:14.684Z,99.99
2023-03-27T00:55:45.425Z,99.61
2023-03-27T00:56:16.114Z,99.55
2023-03-27T00:56:46.842Z,99.40
2023-03-27T05:01:19.577Z,99.99
2023-03-27T05:01:50.340Z,99.99
2023-03-27T05:02:21.614Z,99.99
2023-03-27T05:02:52.227Z,99.99
2023-03-27T05:03:22.822Z,99.99
2023-03-27T05:03:53.311Z,99.99
2023-03-27T05:04:23.831Z,99.99
2023-03-27T05:04:54.372Z,99.99
2023-03-27T05:05:25.551Z,99.99
2023-03-27T05:05:56.101Z,99.99
2023-03-27T05:06:26.560Z,99.99
2023-03-27T05:06:57.584Z,99.99
2023-03-27T05:07:28.155Z,99.99
2023-03-27T05:07:58.584Z,99.99
2023-03-27T05:08:29.695Z,99.99
2023-03-27T05:09:00.179Z,99.99
2023-03-27T05:09:31.128Z,99.99
2023-03-27T05:10:02.301Z,99.99
2023-03-27T05:10:32.798Z,99.99
2023-03-27T05:11:03.704Z,99.99
2023-03-27T05:11:34.768Z,99.99
2023-03-27T05:12:05.241Z,99.99
2023-03-27T05:12:36.136Z,99.99
2023-03-27T05:13:07.094Z,99.99
2023-03-27T05:13:38.065Z,99.99
2023-03-27T05:14:08.954Z,99.99
2023-03-27T05:14:40.185Z,99.99
2023-03-27T05:15:10.602Z,99.99
2023-03-27T05:15:41.468Z,99.99
2023-03-27T05:17:32.607Z,99.99
2023-03-27T05:18:03.187Z,99.99
2023-03-27T05:18:33.638Z,99.99
2023-03-27T05:19:04.533Z,99.99
2023-03-27T05:19:35.726Z,99.99
2023-03-27T05:20:06.203Z,99.99
2023-03-27T05:20:37.091Z,99.99
2023-03-27T05:21:08.048Z,99.99
2023-03-27T05:21:38.934Z,99.99
2023-03-27T05:22:09.823Z,99.99
2023-03-27T05:22:40.969Z,99.99
2023-03-27T05:23:11.433Z,99.99
2023-03-27T05:23:42.331Z,99.99
2023-03-27T05:24:13.230Z,99.99
2023-03-27T05:24:44.220Z,99.99
2023-03-27T05:25:15.106Z,99.99
2023-03-27T05:26:00.035Z,99.99
2023-03-27T05:26:17.631Z,99.99
2023-03-27T05:26:47.579Z,99.99
2023-03-27T05:27:18.571Z,99.99
2023-03-27T05:27:49.508Z,99.99
2023-03-27T05:28:20.678Z,99.99
2023-03-27T05:28:51.127Z,99.99
2023-03-27T05:29:22.084Z,99.99
2023-03-27T05:29:52.997Z,99.99
2023-03-27T05:30:24.033Z,99.99
2023-03-27T05:30:54.633Z,99.99
2023-03-27T05:31:25.547Z,99.99
2023-03-27T05:31:55.877Z,99.99
2023-03-27T05:32:26.781Z,99.99
2023-03-27T05:32:57.842Z,99.99
2023-03-27T05:33:28.314Z,99.99
2023-03-27T05:33:59.222Z,99.99
2023-03-27T05:34:30.237Z,99.99
2023-03-27T05:35:00.687Z,99.99
2023-03-27T05:35:31.623Z,99.99
2023-03-27T05:36:02.390Z,99.99
2023-03-27T05:36:32.908Z,99.99
2023-03-27T05:37:03.851Z,99.99
2023-03-27T05:37:34.935Z,99.99
2023-03-27T05:38:05.440Z,99.99
2023-03-27T05:38:36.497Z,99.99
2023-03-27T05:39:06.970Z,99.99
2023-03-27T05:39:37.913Z,99.99
2023-03-27T05:40:08.900Z,99.99
2023-03-27T05:40:39.954Z,99.99
2023-03-27T05:41:10.395Z,99.99
2023-03-27T05:41:41.287Z,99.99
2023-03-27T05:42:12.185Z,99.99
2023-03-27T05:42:43.145Z,99.99
2023-03-27T05:43:14.050Z,99.99
2023-03-27T05:43:45.126Z,99.99
2023-03-27T05:44:15.760Z,99.99
2023-03-27T05:44:46.255Z,99.99
2023-03-27T05:45:17.253Z,99.99
2023-03-27T05:45:48.223Z,99.99
2023-03-27T05:46:21.106Z,99.99
2023-03-27T05:46:49.735Z,99.99
2023-03-27T05:47:20.200Z,99.99
2023-03-27T05:47:51.219Z,99.99
2023-03-27T05:48:21.828Z,99.99
2023-03-27T05:48:52.229Z,99.99
2023-03-27T05:49:23.129Z,99.99
2023-03-27T05:49:54.267Z,99.99
2023-03-27T05:50:24.809Z,99.99
2023-03-27T05:50:55.650Z,99.99
2023-03-27T05:51:25.874Z,99.99
2023-03-27T05:51:56.794Z,99.99
2023-03-27T05:52:28.859Z,99.99
2023-03-27T05:52:58.699Z,99.99
2023-03-27T05:53:29.208Z,99.99
2023-03-27T05:53:59.695Z,99.99
2023-03-27T05:54:30.628Z,99.99
2023-03-27T05:55:01.546Z,99.99
2023-03-27T05:55:32.552Z,99.99
2023-03-27T05:56:03.670Z,99.99
2023-03-27T05:56:33.877Z,99.99
2023-03-27T05:57:04.493Z,99.99
2023-03-27T05:57:34.890Z,99.99
2023-03-27T05:58:05.845Z,99.99
2023-03-27T05:58:36.336Z,99.99
2023-03-27T05:59:07.490Z,99.99
2023-03-27T05:59:37.959Z,99.99
2023-03-27T06:00:08.858Z,99.99
2023-03-27T06:00:40.062Z,99.99
2023-03-27T06:01:10.460Z,99.99
2023-03-27T06:01:41.557Z,99.99
2023-03-27T06:02:12.205Z,99.99
2023-03-27T06:02:42.767Z,99.99
2023-03-27T06:03:13.438Z,99.99
2023-03-27T06:03:44.271Z,99.99
2023-03-27T06:04:14.832Z,99.99
2023-03-27T06:04:45.927Z,99.99
2023-03-27T06:05:16.826Z,99.99
2023-03-27T06:05:47.335Z,99.99
2023-03-27T06:06:18.306Z,99.99
2023-03-27T06:06:49.504Z,99.99
2023-03-27T06:07:19.974Z,99.99
2023-03-27T06:07:50.845Z,99.99
2023-03-27T06:08:21.988Z,99.99
2023-03-27T06:08:52.441Z,99.99
2023-03-27T06:09:23.439Z,99.99
2023-03-27T06:09:54.398Z,99.99
2023-03-27T06:10:25.336Z,99.99
2023-03-27T06:10:56.519Z,99.99
2023-03-27T06:11:27.326Z,99.99
2023-03-27T06:11:57.777Z,99.99
2023-03-27T06:12:28.672Z,99.99
2023-03-27T06:12:59.587Z,99.99
2023-03-27T06:13:30.517Z,99.99
2023-03-27T06:14:01.508Z,99.99
2023-03-27T06:14:32.706Z,99.99
2023-03-27T06:15:03.167Z,99.99
2023-03-27T06:15:34.216Z,99.99
2023-03-27T06:16:04.733Z,99.99
2023-03-27T06:16:35.142Z,99.99
2023-03-27T06:17:06.087Z,99.99
2023-03-27T06:17:37.167Z,99.99
2023-03-27T06:18:07.687Z,99.99
2023-03-27T06:18:38.176Z,99.99
2023-03-27T06:19:09.122Z,99.99
2023-03-27T06:19:40.015Z,99.99
2023-03-27T06:20:10.924Z,99.99
2023-03-27T06:20:42.136Z,99.99
2023-03-27T06:21:12.640Z,99.99
2023-03-27T06:22:22.614Z,99.99
2023-03-27T06:22:53.501Z,99.99
2023-03-27T06:23:24.390Z,99.99
2023-03-27T06:23:55.323Z,99.99
2023-03-27T06:24:26.234Z,99.99
2023-03-27T06:24:57.360Z,99.99
2023-03-27T06:25:27.866Z,99.99
2023-03-27T06:25:59.027Z,99.99
2023-03-27T06:26:29.620Z,99.99
2023-03-27T06:27:00.575Z,99.99
2023-03-27T06:27:31.554Z,99.99
2023-03-27T06:28:02.226Z,99.99
2023-03-27T06:28:32.708Z,99.99
2023-03-27T06:29:07.887Z,99.99
2023-03-27T06:29:35.586Z,99.99
2023-03-27T06:30:04.999Z,99.99
2023-03-27T06:30:36.125Z,99.99
2023-03-27T06:31:06.665Z,99.99
2023-03-27T06:31:37.101Z,99.99
2023-03-27T06:32:08.020Z,99.99
2023-03-27T06:32:39.029Z,99.99
2023-03-27T06:33:09.969Z,99.99
2023-03-27T06:33:40.936Z,99.99
2023-03-27T06:34:11.509Z,99.99
2023-03-27T06:34:42.130Z,99.99
2023-03-27T06:35:12.627Z,99.99
2023-03-27T06:35:43.125Z,99.99
2023-03-27T06:36:15.235Z,99.99
2023-03-27T06:36:44.796Z,99.99
2023-03-27T06:37:16.030Z,99.99
2023-03-27T06:37:47.407Z,99.99
2023-03-27T06:38:17.306Z,99.99
2023-03-27T06:38:48.413Z,99.99
2023-03-27T06:39:20.802Z,99.99
2023-03-27T06:39:49.817Z,99.99
2023-03-27T06:40:20.317Z,99.99
2023-03-27T06:40:51.224Z,99.99
2023-03-27T06:41:22.220Z,99.99
2023-03-27T06:41:53.453Z,99.99
2023-03-27T06:42:23.892Z,99.99
2023-03-27T06:42:54.911Z,99.99
2023-03-27T06:43:25.337Z,99.99
2023-03-27T06:43:56.212Z,99.99
2023-03-27T06:44:27.121Z,99.99
2023-03-27T06:44:58.290Z,99.99
2023-03-27T06:45:28.771Z,99.99
2023-03-27T06:45:59.950Z,99.99
2023-03-27T06:46:42.655Z,99.99
2023-03-27T06:47:02.498Z,99.99
2023-03-27T06:47:36.319Z,99.99
2023-03-27T06:48:17.826Z,99.99
2023-03-27T06:48:34.498Z,99.99
2023-03-27T06:49:03.922Z,99.99
2023-03-27T06:49:35.216Z,99.99
2023-03-27T06:50:05.699Z,99.99
2023-03-27T06:50:36.595Z,99.99
2023-03-27T06:51:07.484Z,99.99
2023-03-27T06:51:38.620Z,99.99
2023-03-27T06:52:09.122Z,99.99
2023-03-27T06:52:39.910Z,99.99
2023-03-27T06:53:25.902Z,99.99
2023-03-27T06:53:41.963Z,99.99
2023-03-27T06:54:11.872Z,99.99
2023-03-27T06:54:42.912Z,99.99
2023-03-27T06:55:15.156Z,99.99
2023-03-27T06:55:44.056Z,99.99
2023-03-27T06:56:14.542Z,99.99
2023-03-27T06:56:45.456Z,99.99
2023-03-27T06:57:16.381Z,99.99
2023-03-27T06:57:47.325Z,99.99
2023-03-27T06:58:18.566Z,99.99
2023-03-27T06:58:49.063Z,99.99
2023-03-27T06:59:20.106Z,99.99
2023-03-27T06:59:50.606Z,99.99
2023-03-27T07:00:23.539Z,99.99
2023-03-27T07:00:52.428Z,99.99
2023-03-27T07:01:23.575Z,99.99
2023-03-27T07:01:54.065Z,99.99
2023-03-27T07:02:24.465Z,99.99
2023-03-27T07:02:55.520Z,99.99
2023-03-27T07:03:26.349Z,99.99
2023-03-27T07:03:57.216Z,99.99
2023-03-27T07:04:28.290Z,99.99
2023-03-27T07:05:04.895Z,99.99
2023-03-27T07:05:30.937Z,99.99
2023-03-27T07:06:00.854Z,99.99
2023-03-27T07:06:30.961Z,99.99
2023-03-27T07:07:01.867Z,99.99
2023-03-27T07:07:32.797Z,99.99
2023-03-27T07:08:15.138Z,99.99
2023-03-27T07:08:35.495Z,99.99
2023-03-27T07:09:05.423Z,99.99
2023-03-27T07:09:37.901Z,99.99
2023-03-27T07:10:07.278Z,99.99
2023-03-27T07:10:37.787Z,99.99
2023-03-27T07:11:12.234Z,99.99
2023-03-27T07:11:39.563Z,99.99
2023-03-27T07:12:10.037Z,99.99
2023-03-27T07:12:41.187Z,99.99
2023-03-27T07:13:11.768Z,99.99
2023-03-27T07:13:42.340Z,99.99
2023-03-27T07:14:13.105Z,99.99
2023-03-27T07:14:44.313Z,99.99
2023-03-27T07:15:55.801Z,99.99
2023-03-27T07:16:26.755Z,99.99
2023-03-27T07:16:57.274Z,99.99
2023-03-27T07:17:41.863Z,99.99
2023-03-27T07:17:59.126Z,99.99
2023-03-27T07:18:29.698Z,99.99
2023-03-27T07:19:02.407Z,99.99
2023-03-27T07:19:31.273Z,99.99
2023-03-27T07:20:02.189Z,99.99
2023-03-27T07:20:33.040Z,99.99
2023-03-27T07:21:03.852Z,99.99
2023-03-27T07:21:34.874Z,99.99
2023-03-27T07:22:05.876Z,99.99
2023-03-27T07:22:36.369Z,99.99
2023-03-27T07:23:07.510Z,99.99
2023-03-27T07:23:38.018Z,99.99
2023-03-27T07:24:08.414Z,99.99
2023-03-27T07:24:39.317Z,99.99
2023-03-27T07:25:10.216Z,99.99
2023-03-27T07:25:41.293Z,99.99
2023-03-27T07:26:12.176Z,99.99
2023-03-27T07:26:42.832Z,99.99
2023-03-27T07:27:13.401Z,99.99
2023-03-27T07:27:43.881Z,99.99
2023-03-27T07:28:14.862Z,99.99
2023-03-27T07:28:45.838Z,99.99
2023-03-27T07:29:16.966Z,99.99
2023-03-27T07:29:47.620Z,99.99
2023-03-27T07:30:18.083Z,99.99
2023-03-27T07:30:49.093Z,99.99
2023-03-27T07:31:35.115Z,99.99
2023-03-27T07:32:34.159Z,99.99
2023-03-27T07:32:53.184Z,99.99
2023-03-27T07:33:22.830Z,99.99
2023-03-27T07:33:54.584Z,99.99
2023-03-27T07:34:24.037Z,99.99
2023-03-27T07:34:54.746Z,99.99
2023-03-27T07:35:25.421Z,99.99
2023-03-27T07:35:56.120Z,99.99
2023-03-27T07:36:26.640Z,99.99
2023-03-27T07:36:57.541Z,99.99
2023-03-27T07:37:28.548Z,99.99
2023-03-27T07:37:59.237Z,99.99
2023-03-27T07:38:29.775Z,99.99
2023-03-27T07:39:00.170Z,99.99
2023-03-27T07:39:31.188Z,99.99
2023-03-27T07:40:01.638Z,99.99
2023-03-27T07:40:39.367Z,99.99
2023-03-27T07:41:03.129Z,99.99
2023-03-27T07:41:33.554Z,99.99
2023-03-27T07:42:04.517Z,99.99
2023-03-27T07:42:35.444Z,99.99
2023-03-27T07:43:06.457Z,99.99
2023-03-27T07:43:37.093Z,99.99
2023-03-27T07:44:07.597Z,99.99
2023-03-27T07:44:38.263Z,99.99
2023-03-27T07:45:08.884Z,99.99
2023-03-27T07:45:39.483Z,99.99
2023-03-27T07:46:09.986Z,99.99
2023-03-27T07:46:40.615Z,99.99
2023-03-27T07:47:11.159Z,99.99
2023-03-27T07:47:41.807Z,99.99
2023-03-27T07:48:12.358Z,99.99
2023-03-27T07:48:42.990Z,99.99
2023-03-27T07:49:13.659Z,99.99
2023-03-27T07:49:44.402Z,99.99
2023-03-27T07:50:15.059Z,99.99
2023-03-27T07:50:45.591Z,99.99
2023-03-27T07:51:16.018Z,99.99
2023-03-27T07:51:47.005Z,99.99
2023-03-27T07:53:37.971Z,99.99
2023-03-27T07:54:08.644Z,99.99
2023-03-27T07:54:39.115Z,99.99
2023-03-27T07:55:10.088Z,99.99
2023-03-27T07:55:41.219Z,99.99
2023-03-27T07:56:11.716Z,99.99
2023-03-27T07:56:42.434Z,99.99
2023-03-27T07:57:13.155Z,99.99
2023-03-27T07:57:57.209Z,99.99
2023-03-27T07:58:15.690Z,99.99
2023-03-27T07:58:45.553Z,99.99
2023-03-27T07:59:15.903Z,99.99
2023-03-27T07:59:46.795Z,99.99
2023-03-27T08:00:17.725Z,99.99
2023-03-27T08:00:48.723Z,99.99
2023-03-27T08:01:19.919Z,99.99
2023-03-27T08:01:50.629Z,99.99
2023-03-27T08:02:21.255Z,99.99
2023-03-27T08:02:51.775Z,99.99
2023-03-27T08:03:22.501Z,99.99
2023-03-27T08:03:53.373Z,99.99
2023-03-27T08:04:24.155Z,99.99
2023-03-27T08:04:55.231Z,99.99
2023-03-27T08:05:25.601Z,99.99
2023-03-27T08:05:56.531Z,99.99
2023-03-27T08:06:26.695Z,99.99
2023-03-27T08:06:57.275Z,99.99
2023-03-27T08:07:27.777Z,99.99
2023-03-27T08:07:58.905Z,99.99
2023-03-27T08:08:29.420Z,99.99
2023-03-27T08:09:01.585Z,99.99
2023-03-27T08:09:30.483Z,99.99
2023-03-27T08:10:01.408Z,99.99
2023-03-27T08:10:32.522Z,99.99
2023-03-27T08:11:02.992Z,99.99
2023-03-27T08:11:33.944Z,99.99
2023-03-27T08:12:05.121Z,99.99
2023-03-27T08:12:35.746Z,99.99
2023-03-27T08:13:06.277Z,99.99
2023-03-27T08:13:36.784Z,99.99
2023-03-27T08:14:07.248Z,99.99
2023-03-27T08:14:38.164Z,99.99
2023-03-27T08:15:09.280Z,99.99
2023-03-27T08:15:39.752Z,99.99
2023-03-27T08:16:10.783Z,99.99
2023-03-27T08:16:41.336Z,99.99
2023-03-27T08:17:16.133Z,99.99
2023-03-27T08:17:43.844Z,99.99
2023-03-27T08:18:13.672Z,99.99
2023-03-27T08:18:44.144Z,99.99
2023-03-27T08:19:15.145Z,99.99
2023-03-27T08:19:45.657Z,99.99
2023-03-27T08:20:16.566Z,99.99
2023-03-27T08:20:47.564Z,99.99
2023-03-27T08:21:18.608Z,99.99
2023-03-27T08:22:30.041Z,99.99
2023-03-27T08:23:00.994Z,99.99
2023-03-27T08:23:31.880Z,99.99
2023-03-27T08:24:03.047Z,99.99
2023-03-27T08:24:33.508Z,99.99
2023-03-27T08:25:04.740Z,99.99
2023-03-27T08:25:35.226Z,99.99
2023-03-27T08:26:06.195Z,99.99
2023-03-27T08:27:18.171Z,99.99
2023-03-27T08:27:49.124Z,99.99
2023-03-27T08:28:20.134Z,99.99
2023-03-27T08:28:50.803Z,99.99
2023-03-27T08:29:21.301Z,99.99
2023-03-27T08:29:51.932Z,99.99
2023-03-27T08:30:22.415Z,99.99
2023-03-27T08:30:53.467Z,99.99
2023-03-27T08:31:25.338Z,99.99
2023-03-27T08:31:54.790Z,99.99
2023-03-27T08:32:25.949Z,99.99
2023-03-27T08:32:56.427Z,99.99
2023-03-27T08:33:27.319Z,99.99
2023-03-27T08:33:58.329Z,99.99
2023-03-27T08:34:28.761Z,99.99
2023-03-27T08:34:59.751Z,99.99
2023-03-27T08:35:30.886Z,99.99
2023-03-27T08:36:01.407Z,99.99
2023-03-27T08:36:31.980Z,99.99
2023-03-27T08:37:02.395Z,99.99
2023-03-27T08:37:33.357Z,99.99
2023-03-27T08:38:07.347Z,99.99
2023-03-27T08:38:36.230Z,99.99
2023-03-27T08:39:05.660Z,99.99
2023-03-27T08:39:36.775Z,99.99
2023-03-27T08:40:07.260Z,99.99
2023-03-27T08:40:38.374Z,99.99
2023-03-27T08:41:09.014Z,99.99
2023-03-27T08:41:41.147Z,99.99
2023-03-27T08:42:10.119Z,99.99
2023-03-27T08:42:41.091Z,99.99
2023-03-27T08:43:12.017Z,99.99
2023-03-27T08:43:42.945Z,99.99
2023-03-27T08:44:14.048Z,99.99
2023-03-27T08:44:44.519Z,99.99
2023-03-27T08:45:15.438Z,99.99
2023-03-27T08:45:46.497Z,99.99
2023-03-27T08:46:17.005Z,99.99
2023-03-27T08:46:47.466Z,99.99
2023-03-27T08:47:18.610Z,99.99
2023-03-27T08:47:49.117Z,99.99
2023-03-27T08:48:21.788Z,99.99
2023-03-27T08:48:51.191Z,99.99
2023-03-27T08:49:21.656Z,99.99
2023-03-27T08:49:52.644Z,99.99
2023-03-27T08:50:23.398Z,99.99
2023-03-27T08:50:53.915Z,99.99
2023-03-27T08:51:24.853Z,99.99
2023-03-27T08:51:55.810Z,99.99
2023-03-27T08:52:26.885Z,99.99
2023-03-27T08:52:57.465Z,99.99
2023-03-27T08:53:29.630Z,99.93
2023-03-27T08:53:58.718Z,99.99
2023-03-27T08:54:29.631Z,99.99
2023-03-27T08:55:00.501Z,99.66
2023-03-27T08:55:31.409Z,99.29
2023-03-27T08:56:02.349Z,99.01
2023-03-27T08:56:33.581Z,98.66
2023-03-27T08:57:04.061Z,98.97
2023-03-27T08:57:35.021Z,98.96
2023-03-27T08:58:06.032Z,98.43
2023-03-27T08:58:36.464Z,98.11
2023-03-27T08:59:07.590Z,98.14
2023-03-27T08:59:38.163Z,98.11
2023-03-27T09:00:08.647Z,98.04
2023-03-27T09:00:39.573Z,98.39
2023-03-27T09:01:10.509Z,98.36
2023-03-27T09:01:41.520Z,98.26
2023-03-27T09:02:12.132Z,98.53
2023-03-27T09:02:43.292Z,98.63
2023-03-27T09:03:13.928Z,97.52
2023-03-27T09:03:44.738Z,97.43
2023-03-27T09:04:15.292Z,97.83
2023-03-27T09:04:46.195Z,97.95
2023-03-27T09:05:17.161Z,98.05
2023-03-27T09:05:48.235Z,97.94
2023-03-27T09:06:18.687Z,97.40
2023-03-27T09:06:49.687Z,97.46
2023-03-27T09:07:20.711Z,97.25
2023-03-27T09:07:51.117Z,97.10
2023-03-27T09:08:22.118Z,97.20
2023-03-27T09:08:52.818Z,97.71
2023-03-27T09:09:23.296Z,98.04
2023-03-27T09:09:54.183Z,97.83
2023-03-27T09:10:24.708Z,97.35
2023-03-27T09:10:56.267Z,97.47
2023-03-27T09:11:26.352Z,97.41
2023-03-27T09:11:57.489Z,96.55
2023-03-27T09:12:28.045Z,96.52
2023-03-27T09:12:58.492Z,95.83
2023-03-27T09:13:29.207Z,95.36
2023-03-27T09:14:00.115Z,94.22
2023-03-27T09:14:31.009Z,94.60
2023-03-27T09:15:02.231Z,95.03
2023-03-27T09:15:32.873Z,94.62
2023-03-27T09:16:03.348Z,93.87
2023-03-27T09:16:34.080Z,93.91
2023-03-27T09:17:04.578Z,94.66
2023-03-27T09:17:35.628Z,93.62
2023-03-27T09:18:06.368Z,94.04
2023-03-27T09:18:36.975Z,92.86
2023-03-27T09:19:07.556Z,91.64
2023-03-27T09:19:38.006Z,91.87
2023-03-27T09:20:08.980Z,92.94
2023-03-27T09:20:39.880Z,93.93
2023-03-27T09:21:11.059Z,93.01
2023-03-27T09:21:41.600Z,92.45
2023-03-27T09:22:12.080Z,92.39
2023-03-27T09:22:43.021Z,91.85
2023-03-27T09:23:14.183Z,92.12
2023-03-27T09:23:44.672Z,91.18
2023-03-27T09:24:15.741Z,90.70
2023-03-27T09:24:46.442Z,91.10
2023-03-27T09:25:16.915Z,91.64
2023-03-27T09:25:47.834Z,91.87
2023-03-27T09:26:18.717Z,91.35
2023-03-27T09:27:01.052Z,90.89
2023-03-27T09:27:21.587Z,89.77
2023-03-27T09:27:51.562Z,90.29
2023-03-27T09:28:21.578Z,91.50
2023-03-27T09:28:52.338Z,92.10
2023-03-27T09:29:22.736Z,93.20
2023-03-27T09:30:05.652Z,92.80
2023-03-27T09:30:25.312Z,92.33
2023-03-27T09:30:54.921Z,92.97
2023-03-27T09:31:25.677Z,91.53
2023-03-27T09:31:56.251Z,91.87
2023-03-27T09:32:27.497Z,91.62
2023-03-27T09:32:58.964Z,92.33
2023-03-27T09:33:28.445Z,91.39
2023-03-27T09:33:59.377Z,91.50
2023-03-27T09:34:30.527Z,91.85
2023-03-27T09:35:01.062Z,91.43
2023-03-27T09:35:31.718Z,90.81
2023-03-27T09:36:02.258Z,92.10
2023-03-27T09:36:32.787Z,92.72
2023-03-27T09:37:03.784Z,92.74
2023-03-27T09:37:36.440Z,93.31
2023-03-27T09:38:05.251Z,93.45
2023-03-27T09:38:35.836Z,93.50
2023-03-27T09:39:06.427Z,92.12
2023-03-27T09:39:36.853Z,93.60
2023-03-27T09:40:07.801Z,92.52
2023-03-27T09:40:38.880Z,91.97
2023-03-27T09:41:09.542Z,92.35
2023-03-27T09:41:40.403Z,91.37
2023-03-27T09:42:10.876Z,92.76
2023-03-27T09:42:41.888Z,91.68
2023-03-27T09:43:12.779Z,90.62
2023-03-27T09:43:43.708Z,92.02
2023-03-27T09:44:14.686Z,92.58
2023-03-27T09:44:45.806Z,92.16
2023-03-27T09:45:16.284Z,91.46
2023-03-27T09:45:47.237Z,91.78
2023-03-27T09:46:18.181Z,90.60
2023-03-27T09:46:48.991Z,91.37
2023-03-27T09:47:19.874Z,91.60
2023-03-27T09:47:50.664Z,91.06
2023-03-27T09:48:21.222Z,91.97
2023-03-27T09:48:51.704Z,92.06
2023-03-27T09:49:22.657Z,92.39
2023-03-27T09:49:53.655Z,92.72
2023-03-27T09:50:26.353Z,92.18
2023-03-27T09:50:55.399Z,92.31
2023-03-27T09:51:25.609Z,91.12
2023-03-27T09:51:56.628Z,90.77
2023-03-27T09:52:27.056Z,91.66
2023-03-27T09:52:58.015Z,92.16
2023-03-27T09:53:28.950Z,91.93
2023-03-27T09:54:00.148Z,91.66
2023-03-27T09:54:30.636Z,92.66
2023-03-27T09:55:01.538Z,92.74
2023-03-27T09:55:32.518Z,92.83
2023-03-27T09:56:03.588Z,91.47
2023-03-27T09:56:34.232Z,91.93
2023-03-27T09:57:05.377Z,92.62
2023-03-27T09:57:35.866Z,92.77
2023-03-27T09:58:06.873Z,93.29
2023-03-27T09:58:37.325Z,93.74
2023-03-27T09:59:08.320Z,94.16
2023-03-27T09:59:39.230Z,93.93
2023-03-27T10:00:10.402Z,93.83
2023-03-27T10:00:41.103Z,93.56
2023-03-27T10:01:11.686Z,92.89
2023-03-27T10:01:42.096Z,92.83
2023-03-27T10:02:13.106Z,92.46
2023-03-27T10:02:44.010Z,92.29
2023-03-27T10:03:16.525Z,91.96
2023-03-27T10:03:45.911Z,92.72
2023-03-27T10:04:16.385Z,92.66
2023-03-27T10:04:46.904Z,92.21
2023-03-27T10:05:17.848Z,92.68
2023-03-27T10:05:48.842Z,92.72
2023-03-27T10:06:19.952Z,92.14
2023-03-27T10:06:50.891Z,92.58
2023-03-27T10:07:21.381Z,92.58
2023-03-27T10:07:52.264Z,92.66
2023-03-27T10:08:24.813Z,92.58
2023-03-27T10:08:54.032Z,92.71
2023-03-27T10:09:25.217Z,92.91
2023-03-27T10:09:55.607Z,92.66
2023-03-27T10:10:26.737Z,93.27
2023-03-27T10:10:57.541Z,93.87
2023-03-27T10:11:27.817Z,94.90
2023-03-27T10:11:58.443Z,94.93
2023-03-27T10:12:29.138Z,94.84
2023-03-27T10:12:59.665Z,94.90
2023-03-27T10:13:30.292Z,94.85
2023-03-27T10:14:00.772Z,94.17
2023-03-27T10:14:31.914Z,92.83
2023-03-27T10:15:02.516Z,93.12
2023-03-27T10:15:33.379Z,93.43
2023-03-27T10:16:03.919Z,92.97
2023-03-27T10:16:34.404Z,93.49
2023-03-27T10:17:05.287Z,92.49
2023-03-27T10:17:35.893Z,92.39
2023-03-27T10:18:06.722Z,93.27
2023-03-27T10:18:37.588Z,92.55
2023-03-27T10:19:08.090Z,90.77
2023-03-27T10:19:39.024Z,91.02
2023-03-27T10:20:10.094Z,90.26
2023-03-27T10:20:40.582Z,89.67
2023-03-27T10:21:11.517Z,89.06
2023-03-27T10:21:42.692Z,90.12
2023-03-27T10:22:14.374Z,89.67
2023-03-27T10:22:44.235Z,88.71
2023-03-27T10:23:15.175Z,89.18
2023-03-27T10:23:46.282Z,87.76
2023-03-27T10:24:16.828Z,87.71
2023-03-27T10:24:48.033Z,87.65
2023-03-27T10:25:18.540Z,86.95
2023-03-27T10:25:49.216Z,85.95
2023-03-27T10:26:19.877Z,84.59
2023-03-27T10:26:50.334Z,85.64
2023-03-27T10:27:21.383Z,85.12
2023-03-27T10:27:52.257Z,86.47
2023-03-27T10:28:22.918Z,88.00
2023-03-27T10:28:53.396Z,86.88
2023-03-27T10:29:23.912Z,85.64
2023-03-27T10:29:54.860Z,84.38
2023-03-27T10:30:25.826Z,85.88
2023-03-27T10:30:56.739Z,86.60
2023-03-27T10:31:26.947Z,85.44
2023-03-27T10:31:57.805Z,85.59
2023-03-27T10:32:28.284Z,85.06
2023-03-27T10:32:59.388Z,85.94
2023-03-27T10:34:10.944Z,83.43
2023-03-27T10:34:41.360Z,83.74
2023-03-27T10:35:12.278Z,82.70
2023-03-27T10:35:43.349Z,81.24
2023-03-27T10:36:14.071Z,81.07
2023-03-27T10:36:44.415Z,83.05
2023-03-27T10:37:15.463Z,83.09
2023-03-27T10:37:50.216Z,81.98
2023-03-27T10:38:17.943Z,81.04
2023-03-27T10:38:47.642Z,80.87
2023-03-27T10:39:18.172Z,81.15
2023-03-27T10:39:48.640Z,81.87
2023-03-27T10:40:19.541Z,81.81
2023-03-27T10:40:50.564Z,82.26
2023-03-27T10:41:28.685Z,83.12
2023-03-27T10:41:52.716Z,82.22
2023-03-27T10:42:22.637Z,83.09
2023-03-27T10:42:53.872Z,83.58
2023-03-27T10:43:24.502Z,84.51
2023-03-27T10:43:54.992Z,82.56
2023-03-27T10:44:26.119Z,82.21
2023-03-27T10:44:56.633Z,82.63
2023-03-27T10:45:27.544Z,81.93
2023-03-27T10:45:58.612Z,80.27
2023-03-27T10:46:29.446Z,80.16
2023-03-27T10:47:00.000Z,79.03
2023-03-27T10:47:30.467Z,78.64
2023-03-27T10:48:01.461Z,79.55